createdAt,value
2023-01-15T00:02:48.268Z,0.40
2023-01-15T00:07:50.175Z,0.30
2023-01-15T00:12:52.728Z,0.40
2023-01-15T00:17:54.780Z,0.38
2023-01-15T00:22:56.709Z,0.50
2023-01-15T00:28:01.760Z,0.47
2023-01-15T00:33:04.018Z,0.47
2023-01-15T00:38:06.996Z,0.50
2023-01-15T00:43:09.765Z,0.55
2023-01-15T00:48:12.985Z,0.50
2023-01-15T00:53:15.728Z,0.35
2023-01-15T00:58:18.910Z,0.40
2023-01-15T01:03:25.267Z,0.30
2023-01-15T01:08:29.401Z,0.57
2023-01-15T01:13:33.323Z,0.35
2023-01-15T01:18:35.078Z,0.38
2023-01-15T01:23:37.068Z,0.32
2023-01-15T01:28:38.784Z,0.57
2023-01-15T01:33:40.795Z,0.40
2023-01-15T01:38:42.689Z,0.35
2023-01-15T01:44:03.744Z,0.52
2023-01-15T01:49:10.902Z,0.32
2023-01-15T01:54:17.764Z,0.40
2023-01-15T01:59:22.951Z,0.45
2023-01-15T02:04:28.924Z,0.50
2023-01-15T02:09:34.463Z,0.50
2023-01-15T02:14:54.083Z,0.60
2023-01-15T02:20:30.151Z,0.82
2023-01-15T02:25:57.693Z,0.60
2023-01-15T02:31:09.713Z,0.45
2023-01-15T02:36:15.037Z,0.40
2023-01-15T02:41:20.361Z,0.40
2023-01-15T02:46:29.898Z,0.32
2023-01-15T02:51:42.058Z,0.30
2023-01-15T02:56:46.874Z,0.40
2023-01-15T03:01:54.921Z,0.30
2023-01-15T03:07:09.772Z,0.40
2023-01-15T03:13:04.112Z,0.40
2023-01-15T03:18:08.887Z,0.40
2023-01-15T03:23:13.424Z,0.40
2023-01-15T03:28:21.148Z,0.40
2023-01-15T03:33:26.382Z,0.30
2023-01-15T03:38:35.522Z,0.47
2023-01-15T03:43:51.652Z,0.30
2023-01-15T03:49:12.274Z,0.40
2023-01-15T03:54:27.068Z,0.30
2023-01-15T03:59:36.036Z,0.40
2023-01-15T04:04:40.117Z,0.30
2023-01-15T04:09:42.552Z,0.40
2023-01-15T04:14:44.857Z,0.40
2023-01-15T04:19:48.008Z,0.50
2023-01-15T04:24:49.850Z,0.30
2023-01-15T04:29:51.781Z,0.30
2023-01-15T04:34:54.730Z,0.20
2023-01-15T04:39:56.669Z,0.30
2023-01-15T04:44:59.630Z,0.30
2023-01-15T04:50:02.174Z,1.48
2023-01-15T04:55:04.678Z,0.80
2023-01-15T05:00:11.204Z,0.60
2023-01-15T05:05:13.915Z,0.70
2023-01-15T05:10:16.940Z,1.00
2023-01-15T05:15:18.837Z,1.50
2023-01-15T05:20:21.016Z,1.27
2023-01-15T05:25:23.208Z,1.70
2023-01-15T05:30:25.280Z,1.90
2023-01-15T05:35:27.206Z,1.83
2023-01-15T05:40:28.902Z,1.30
2023-01-15T05:45:33.836Z,0.70
2023-01-15T05:50:37.464Z,0.50
2023-01-15T05:55:39.155Z,0.60
2023-01-15T06:00:42.075Z,0.60
2023-01-15T06:05:44.171Z,0.70
2023-01-15T06:10:47.133Z,0.90
2023-01-15T06:15:49.217Z,0.63
2023-01-15T06:20:50.917Z,0.88
2023-01-15T06:25:52.589Z,0.80
2023-01-15T06:30:54.589Z,0.90
2023-01-15T06:35:56.334Z,0.90
2023-01-15T06:41:03.397Z,0.60
2023-01-15T06:46:25.339Z,0.60
2023-01-15T06:51:30.974Z,0.90
2023-01-15T06:56:35.524Z,0.88
2023-01-15T07:01:37.331Z,0.90
2023-01-15T07:06:40.311Z,0.70
2023-01-15T07:11:52.370Z,0.50
2023-01-15T07:16:56.755Z,0.43
2023-01-15T07:27:20.589Z,0.60
2023-01-15T07:32:22.736Z,0.50
2023-01-15T07:37:24.420Z,0.30
2023-01-15T07:42:45.571Z,0.45
2023-01-15T07:48:05.989Z,0.50
2023-01-15T07:53:07.698Z,0.47
2023-01-15T07:58:14.084Z,0.63
2023-01-15T08:03:18.117Z,1.05
2023-01-15T08:08:19.993Z,0.70
2023-01-15T08:13:40.396Z,0.63
2023-01-15T08:18:42.198Z,0.85
2023-01-15T08:23:46.396Z,0.50
2023-01-15T08:28:48.074Z,0.52
2023-01-15T08:33:49.836Z,0.47
2023-01-15T08:38:51.724Z,0.50
2023-01-15T08:43:53.420Z,0.50
2023-01-15T08:48:55.161Z,0.40
2023-01-15T08:53:56.878Z,0.40
2023-01-15T08:58:58.756Z,0.38
2023-01-15T09:04:00.584Z,0.40
2023-01-15T09:09:02.393Z,0.30
2023-01-15T09:14:04.185Z,0.25
2023-01-15T09:19:07.107Z,0.38
2023-01-15T09:24:08.966Z,0.50
2023-01-15T09:29:12.332Z,0.50
2023-01-15T09:34:14.088Z,0.50
2023-01-15T09:39:15.789Z,0.60
2023-01-15T09:44:27.564Z,0.40
2023-01-15T09:49:37.731Z,0.40
2023-01-15T09:54:59.871Z,0.30
2023-01-15T10:00:05.397Z,0.30
2023-01-15T10:05:16.600Z,0.50
2023-01-15T10:10:24.632Z,0.30
2023-01-15T10:15:44.148Z,0.50
2023-01-15T10:20:51.742Z,0.60
2023-01-15T10:26:22.086Z,0.60
2023-01-15T10:31:43.001Z,0.52
2023-01-15T10:37:14.101Z,0.57
2023-01-15T10:42:34.683Z,0.45
2023-01-15T10:47:39.535Z,0.50
2023-01-15T10:52:44.986Z,0.40
2023-01-15T10:57:56.391Z,0.40
2023-01-15T11:03:11.778Z,0.30
2023-01-15T11:09:08.476Z,0.40
2023-01-15T11:14:16.027Z,0.40
2023-01-15T11:19:37.198Z,0.50
2023-01-15T11:24:52.596Z,0.60
2023-01-15T11:29:59.384Z,0.30
2023-01-15T11:35:16.141Z,0.50
2023-01-15T11:40:21.112Z,0.40
2023-01-15T11:45:45.800Z,0.40
2023-01-15T11:51:00.310Z,0.40
2023-01-15T11:56:08.358Z,0.45
2023-01-15T12:01:16.051Z,0.57
2023-01-15T12:06:20.882Z,0.50
2023-01-15T12:11:41.017Z,0.50
2023-01-15T12:17:07.639Z,0.40
2023-01-15T12:22:12.365Z,0.50
2023-01-15T12:27:23.187Z,0.60
2023-01-15T12:32:42.075Z,0.38
2023-01-15T12:37:50.752Z,0.40
2023-01-15T12:43:14.835Z,0.40
2023-01-15T12:48:38.432Z,0.40
2023-01-15T12:53:43.003Z,0.45
2023-01-15T12:58:50.684Z,0.43
2023-01-15T13:04:12.121Z,0.50
2023-01-15T13:09:27.204Z,0.38
2023-01-15T13:14:30.230Z,0.35
2023-01-15T13:20:10.339Z,0.40
2023-01-15T13:25:30.564Z,0.60
2023-01-15T13:30:58.232Z,0.35
2023-01-15T13:36:21.000Z,0.43
2023-01-15T13:41:45.551Z,0.40
2023-01-15T13:47:00.498Z,0.40
2023-01-15T13:52:05.207Z,0.50
2023-01-15T13:57:33.908Z,0.30
2023-01-15T14:02:38.979Z,0.40
2023-01-15T14:07:40.711Z,0.32
2023-01-15T14:13:15.739Z,0.30
2023-01-15T14:18:24.205Z,0.50
2023-01-15T14:24:08.081Z,0.55
2023-01-15T14:29:19.384Z,0.50
2023-01-15T14:34:28.701Z,0.40
2023-01-15T14:39:53.680Z,0.40
2023-01-15T14:45:12.854Z,0.50
2023-01-15T14:50:42.691Z,0.63
2023-01-15T14:56:12.856Z,0.40
2023-01-15T15:01:32.873Z,0.60
2023-01-15T15:06:44.877Z,0.60
2023-01-15T15:12:08.606Z,0.60
2023-01-15T15:17:20.990Z,0.60
2023-01-15T15:22:26.608Z,0.43
2023-01-15T15:27:28.816Z,0.70
2023-01-15T15:32:39.042Z,0.60
2023-01-15T15:37:44.325Z,0.75
2023-01-15T15:43:26.141Z,0.82
2023-01-15T15:48:41.988Z,0.68
2023-01-15T15:53:44.093Z,1.05
2023-01-15T15:58:46.609Z,0.90
2023-01-15T16:03:48.711Z,1.20
2023-01-15T16:08:55.785Z,0.80
2023-01-15T16:14:00.044Z,1.00
2023-01-15T16:19:02.788Z,0.90
2023-01-15T16:24:18.963Z,1.58
2023-01-15T16:29:28.408Z,0.95
2023-01-15T16:34:33.073Z,1.40
2023-01-15T16:39:47.679Z,0.77
2023-01-15T16:44:55.269Z,0.88
2023-01-15T16:50:24.394Z,0.93
2023-01-15T16:55:45.412Z,0.70
2023-01-15T17:00:53.506Z,0.70
2023-01-15T17:06:03.155Z,0.73
2023-01-15T17:11:06.801Z,0.88
2023-01-15T17:16:22.732Z,0.98
2023-01-15T17:21:31.131Z,1.05
2023-01-15T17:26:33.728Z,0.90
2023-01-15T17:31:36.317Z,0.88
2023-01-15T17:36:38.170Z,0.80
2023-01-15T17:41:39.874Z,1.00
2023-01-15T17:46:44.107Z,0.98
2023-01-15T17:51:46.088Z,0.90
2023-01-15T17:57:06.160Z,1.13
2023-01-15T18:02:32.469Z,0.80
2023-01-15T18:07:40.954Z,0.90
2023-01-15T18:12:42.862Z,1.00
2023-01-15T18:17:44.944Z,1.00
2023-01-15T18:22:46.753Z,0.82
2023-01-15T18:27:50.461Z,1.00
2023-01-15T18:32:53.469Z,1.00
2023-01-15T18:37:57.261Z,1.50
2023-01-15T18:43:17.587Z,1.05
2023-01-15T18:48:25.939Z,0.90
2023-01-15T18:53:27.650Z,1.10
2023-01-15T18:58:29.306Z,1.10
2023-01-15T19:03:33.765Z,1.15
2023-01-15T19:08:35.503Z,1.48
2023-01-15T19:13:37.770Z,1.13
2023-01-15T19:18:42.220Z,1.13
2023-01-15T19:23:43.960Z,0.80
2023-01-15T19:28:45.615Z,0.90
2023-01-15T19:33:47.387Z,0.90
2023-01-15T19:38:49.117Z,1.25
2023-01-15T19:44:09.272Z,0.93
2023-01-15T19:49:37.252Z,1.00
2023-01-15T19:54:59.772Z,1.05
2023-01-15T20:00:02.020Z,1.08
2023-01-15T20:05:05.358Z,1.08
2023-01-15T20:10:11.625Z,1.15
2023-01-15T20:15:14.807Z,1.02
2023-01-15T20:20:16.732Z,0.90
2023-01-15T20:25:18.792Z,0.85
2023-01-15T20:30:24.778Z,1.20
2023-01-15T20:35:31.183Z,1.00
2023-01-15T20:40:33.029Z,0.90
2023-01-15T20:45:35.101Z,0.77
2023-01-15T20:50:40.069Z,2.50
2023-01-15T20:55:55.733Z,1.10
2023-01-15T21:01:03.911Z,1.00
2023-01-15T21:06:07.381Z,0.93
2023-01-15T21:11:10.090Z,0.80
2023-01-15T21:16:16.369Z,0.90
2023-01-15T21:21:20.642Z,0.70
2023-01-15T21:26:26.404Z,1.10
2023-01-15T21:31:28.870Z,1.15
2023-01-15T21:36:30.617Z,1.00
2023-01-15T21:41:50.703Z,1.40
2023-01-15T21:46:52.827Z,1.00
2023-01-15T21:51:54.756Z,1.00
2023-01-15T21:56:57.874Z,0.95
2023-01-15T22:02:00.532Z,0.90
2023-01-15T22:07:03.004Z,1.10
2023-01-15T22:12:05.748Z,0.65
2023-01-15T22:17:09.091Z,0.98
2023-01-15T22:22:11.815Z,0.90
2023-01-15T22:27:18.842Z,0.80
2023-01-15T22:32:20.576Z,0.90
2023-01-15T22:37:22.732Z,0.88
2023-01-15T22:42:24.475Z,0.98
2023-01-15T22:47:28.270Z,0.60
2023-01-15T22:52:30.751Z,1.10
2023-01-15T22:57:33.492Z,0.70
2023-01-15T23:02:54.569Z,0.65
2023-01-15T23:07:56.529Z,0.77
2023-01-15T23:12:58.264Z,0.90
2023-01-15T23:18:01.320Z,0.80
2023-01-15T23:23:04.189Z,0.70
2023-01-15T23:28:06.106Z,0.90
2023-01-15T23:33:08.725Z,0.82
2023-01-15T23:38:12.438Z,0.85
2023-01-15T23:43:34.723Z,0.70
2023-01-15T23:48:36.549Z,0.77
2023-01-15T23:53:38.297Z,0.90
2023-01-15T23:58:39.958Z,1.02
